Sealand Michigan — 9HA3390 — position and weather

sailwx.info

Track history (hours):
 
Tides and Currents Weather Stations Pressure Air Temp Water Temp Dewpoint Dewpoint Depression Visibility Wind Speed Wind Dir Waves Ship Positions

Sealand Michigan

Last reported at 2018-Apr-18 16:05 UTC. Time now 2018-Apr-19 21:26 UTC.
Position N 19°42' W 096°08'.

Length 303 m; draft 11.9 m.

Type: Cargo ship. MMSI: 229538000.

Date/timePositionNaut miles runAvg speedWind from/ knotsBaromVisibWave heightAir tempDewpointWater temp
2018-Apr-18 16:05N 19°42' W 096°08'118.3
2018-Apr-18 16:01N 19°41' W 096°08'918.4
2018-Apr-18 15:30N 19°32' W 096°04'918.3
2018-Apr-18 15:00N 19°24' W 095°60'917.8
2018-Apr-18 14:30N 19°15' W 095°58'714.5
2018-Apr-18 14:00N 19°11' W 096°04'4 7.2
2018-Apr-18 13:29N 19°12' W 096°08'0 0.1
2018-Apr-18 10:11N 19°13' W 096°08'0 0.0
2018-Apr-18 09:53N 19°13' W 096°08'0 0.0
2018-Apr-18 09:29N 19°13' W 096°08'0 0.0
2018-Apr-18 08:59N 19°13' W 096°08'0 0.0
2018-Apr-18 08:29N 19°13' W 096°08'0 0.0
2018-Apr-18 07:59N 19°13' W 096°08'0 0.0
2018-Apr-18 07:23N 19°13' W 096°08'0 0.0
2018-Apr-18 06:59N 19°13' W 096°08'0 0.0
2018-Apr-18 06:29N 19°13' W 096°08'0 0.0
2018-Apr-18 05:59N 19°13' W 096°08'0 0.0
2018-Apr-18 05:29N 19°13' W 096°08'0 0.0
2018-Apr-18 04:53N 19°13' W 096°08'0 0.0
2018-Apr-18 04:29N 19°13' W 096°08'0 0.0
2018-Apr-18 03:59N 19°13' W 096°08'0 0.0
2018-Apr-18 03:29N 19°13' W 096°08'0 0.0
2018-Apr-18 02:59N 19°13' W 096°08'0 0.0
2018-Apr-18 02:29N 19°13' W 096°08'0 0.0
2018-Apr-18 01:59N 19°13' W 096°08'0 0.0
2018-Apr-18 01:29N 19°13' W 096°08'0 0.0
2018-Apr-18 00:59N 19°13' W 096°08'0 0.0
2018-Apr-18 00:17N 19°13' W 096°08'0 0.0
2018-Apr-17 23:59N 19°13' W 096°08'0 0.0
2018-Apr-17 23:29N 19°13' W 096°08'0 0.0
2018-Apr-17 22:56N 19°13' W 096°08'0 0.0
2018-Apr-17 22:29N 19°13' W 096°08'0 0.0
2018-Apr-17 21:59N 19°13' W 096°08'0 0.0
2018-Apr-17 21:29N 19°13' W 096°08'0 0.0
2018-Apr-17 20:59N 19°13' W 096°08'0 0.0
2018-Apr-17 20:23N 19°13' W 096°08'0 0.0
2018-Apr-17 19:56N 19°13' W 096°08'0 0.0
2018-Apr-17 19:29N 19°13' W 096°08'0 0.0
2018-Apr-17 18:59N 19°13' W 096°08'0 0.0
2018-Apr-17 18:29N 19°13' W 096°08'0 0.0
2018-Apr-17 17:59N 19°13' W 096°08'0 0.0
2018-Apr-17 17:29N 19°13' W 096°08'0 0.0
2018-Apr-17 16:59N 19°13' W 096°08'0 0.0
2018-Apr-17 16:29N 19°13' W 096°08'0 0.0
2018-Apr-17 15:59N 19°13' W 096°08'0 0.0
2018-Apr-17 15:29N 19°13' W 096°08'0 0.0
2018-Apr-17 14:59N 19°13' W 096°08'0 0.0
2018-Apr-17 14:29N 19°13' W 096°08'0 0.4
2018-Apr-17 14:00N 19°12' W 096°08'4 8.1
2018-Apr-17 13:30N 19°11' W 096°04'4 8.6
2018-Apr-17 13:00N 19°14' W 096°00'612.1
2018-Apr-17 12:30N 19°20' W 095°57'612.3
2018-Apr-17 12:00N 19°22' W 095°51'1 1.1
2018-Apr-17 11:30N 19°22' W 095°51'0 0.3
2018-Apr-17 11:00N 19°22' W 095°51'0 0.2
2018-Apr-17 10:30N 19°22' W 095°51'0 0.2
2018-Apr-17 10:00N 19°22' W 095°51'0 0.2
2018-Apr-17 09:30N 19°21' W 095°51'0 0.1
2018-Apr-17 09:00N 19°21' W 095°51'0 0.1
2018-Apr-17 08:28N 19°21' W 095°51'0 0.2
2018-Apr-17 08:00N 19°21' W 095°51'0 0.3
2018-Apr-17 07:30N 19°21' W 095°51'0 0.4
2018-Apr-17 07:00N 19°21' W 095°50'0 0.5
2018-Apr-17 06:30N 19°21' W 095°50'0 0.5
2018-Apr-17 06:00N 19°21' W 095°50'0 0.6
2018-Apr-17 05:30N 19°21' W 095°49'0 0.7
2018-Apr-17 04:59N 19°21' W 095°49'0 0.7
2018-Apr-17 04:30N 19°21' W 095°49'0 0.9
2018-Apr-17 04:00N 19°21' W 095°48'1 1.0
2018-Apr-17 03:27N 19°22' W 095°48'1 1.3
2018-Apr-17 02:58N 19°22' W 095°48'610.3
2018-Apr-17 02:23N 19°20' W 095°54'3 6.6
2018-Apr-17 02:01N 19°20' W 095°57'0 0.8
2018-Apr-17 01:30N 19°20' W 095°57'0 0.9
2018-Apr-17 01:01N 19°20' W 095°56'0 1.0
2018-Apr-17 00:30N 19°20' W 095°56'1 1.1
2018-Apr-17 00:00N 19°21' W 095°55'1 1.2
2018-Apr-16 23:30N 19°21' W 095°54'1 1.3
2018-Apr-16 23:00N 19°21' W 095°54'1 1.3
2018-Apr-16 22:30N 19°22' W 095°53'1 1.3
2018-Apr-16 22:00N 19°22' W 095°53'1 1.7
2018-Apr-16 21:30N 19°23' W 095°53'4 8.5
2018-Apr-16 21:01N 19°19' W 095°54'3 5.7
2018-Apr-16 20:29N 19°16' W 095°54'1 1.1
2018-Apr-16 20:00N 19°17' W 095°54'1 1.0
2018-Apr-16 19:31N 19°17' W 095°54'1 1.1
2018-Apr-16 18:58N 19°18' W 095°54'1 1.1
2018-Apr-16 18:29N 19°18' W 095°55'1 1.2
2018-Apr-16 17:54N 19°19' W 095°55'1 1.3
2018-Apr-16 17:29N 19°19' W 095°55'1 1.4
2018-Apr-16 17:00N 19°20' W 095°55'1 2.0
2018-Apr-16 16:29N 19°21' W 095°56'2 3.1
2018-Apr-16 16:00N 19°20' W 095°57'510.0
2018-Apr-16 15:30N 19°15' W 095°57'5 8.8
2018-Apr-16 14:59N 19°15' W 095°52'816.3
2018-Apr-16 14:30N 19°15' W 095°44'  
2018-Apr-14 10:20N 25°30' W 079°40'516.6
2018-Apr-14 10:00N 25°36' W 079°41'816.3
2018-Apr-14 09:30N 25°44' W 079°41'917.3
2018-Apr-14 09:00N 25°50' W 079°48'917.6
2018-Apr-14 08:30N 25°56' W 079°54'917.5
2018-Apr-14 08:00N 26°02' W 080°01'510.7
2018-Apr-14 07:30N 26°06' W 080°06'1 1.8
2018-Apr-14 07:00N 26°05' W 080°07'1 1.5
2018-Apr-14 06:30N 26°04' W 080°07'0 0.0
2018-Apr-14 06:00N 26°04' W 080°07'0 0.0
2018-Apr-14 05:30N 26°04' W 080°07'0 0.0
2018-Apr-14 05:00N 26°04' W 080°07'0 0.0
2018-Apr-14 04:30N 26°04' W 080°07'0 0.0
2018-Apr-14 04:00N 26°04' W 080°07'0 0.0
2018-Apr-14 03:30N 26°04' W 080°07'0 0.0
2018-Apr-14 03:00N 26°04' W 080°07'0 0.0
2018-Apr-14 02:30N 26°04' W 080°07'0 0.0
2018-Apr-14 02:00N 26°04' W 080°07'0 0.0
2018-Apr-14 01:30N 26°04' W 080°07'0 0.0
2018-Apr-14 01:00N 26°04' W 080°07'0 0.0
2018-Apr-14 00:30N 26°04' W 080°07'0 0.0
2018-Apr-14 00:00N 26°04' W 080°07'0 0.0
2018-Apr-13 23:30N 26°04' W 080°07'0 0.0
2018-Apr-13 23:00N 26°04' W 080°07'0 0.0
2018-Apr-13 22:30N 26°04' W 080°07'0 0.0
2018-Apr-13 22:00N 26°04' W 080°07'0 0.0
2018-Apr-13 21:30N 26°04' W 080°07'0 0.0
2018-Apr-13 21:00N 26°04' W 080°07'0 0.0
2018-Apr-13 20:30N 26°04' W 080°07'0 0.0
2018-Apr-13 20:00N 26°04' W 080°07'0 0.0
2018-Apr-13 19:30N 26°04' W 080°07'0 0.0
2018-Apr-13 19:00N 26°04' W 080°07'0 0.0
2018-Apr-13 18:30N 26°04' W 080°07'0 0.0
2018-Apr-13 18:00N 26°04' W 080°07'0 0.0
2018-Apr-13 17:30N 26°04' W 080°07'0 0.0
2018-Apr-13 17:00N 26°04' W 080°07'0 0.0
2018-Apr-13 16:30N 26°04' W 080°07'0 0.0
2018-Apr-13 16:00N 26°04' W 080°07'0 0.0
2018-Apr-13 15:30N 26°04' W 080°07'0 0.0
2018-Apr-13 15:00N 26°04' W 080°07'0 0.9
2018-Apr-13 14:30N 26°05' W 080°07'1 2.5
2018-Apr-13 14:00N 26°06' W 080°06'4 7.6
2018-Apr-13 13:30N 26°05' W 080°02'1 1.3
2018-Apr-13 13:00N 26°04' W 080°01'1 1.1
2018-Apr-13 12:30N 26°05' W 080°01'3 5.7
2018-Apr-13 12:00N 26°06' W 079°58'510.9
2018-Apr-13 11:30N 26°08' W 079°53'510.5
2018-Apr-13 11:00N 26°10' W 079°47'510.1
2018-Apr-13 10:30N 26°12' W 079°42'5 9.6
2018-Apr-13 10:00N 26°14' W 079°37'5 9.9
2018-Apr-13 09:30N 26°16' W 079°32'510.3
2018-Apr-13 09:00N 26°17' W 079°26'510.6
2018-Apr-13 08:30N 26°19' W 079°21'  
Track history (hours):
 
Tides and Currents Weather Stations Pressure Air Temp Water Temp Dewpoint Dewpoint Depression Visibility Wind Speed Wind Dir Waves Ship Positions

Sealand Michigan

Last reported at 2018-Apr-18 16:05 UTC. Time now 2018-Apr-19 21:26 UTC.
Position N 19°42' W 096°08'.

Length 303 m; draft 11.9 m.

Type: Cargo ship. MMSI: 229538000.

Date/timePositionNaut miles runAvg speedWind from/ knotsBaromVisibWave heightAir tempDewpointWater temp
2018-Apr-18 16:05N 19°42' W 096°08'118.3
2018-Apr-18 16:01N 19°41' W 096°08'918.4
2018-Apr-18 15:30N 19°32' W 096°04'918.3
2018-Apr-18 15:00N 19°24' W 095°60'917.8
2018-Apr-18 14:30N 19°15' W 095°58'714.5
2018-Apr-18 14:00N 19°11' W 096°04'4 7.2
2018-Apr-18 13:29N 19°12' W 096°08'0 0.1
2018-Apr-18 10:11N 19°13' W 096°08'0 0.0
2018-Apr-18 09:53N 19°13' W 096°08'0 0.0
2018-Apr-18 09:29N 19°13' W 096°08'0 0.0
2018-Apr-18 08:59N 19°13' W 096°08'0 0.0
2018-Apr-18 08:29N 19°13' W 096°08'0 0.0
2018-Apr-18 07:59N 19°13' W 096°08'0 0.0
2018-Apr-18 07:23N 19°13' W 096°08'0 0.0
2018-Apr-18 06:59N 19°13' W 096°08'0 0.0
2018-Apr-18 06:29N 19°13' W 096°08'0 0.0
2018-Apr-18 05:59N 19°13' W 096°08'0 0.0
2018-Apr-18 05:29N 19°13' W 096°08'0 0.0
2018-Apr-18 04:53N 19°13' W 096°08'0 0.0
2018-Apr-18 04:29N 19°13' W 096°08'0 0.0
2018-Apr-18 03:59N 19°13' W 096°08'0 0.0
2018-Apr-18 03:29N 19°13' W 096°08'0 0.0
2018-Apr-18 02:59N 19°13' W 096°08'0 0.0
2018-Apr-18 02:29N 19°13' W 096°08'0 0.0
2018-Apr-18 01:59N 19°13' W 096°08'0 0.0
2018-Apr-18 01:29N 19°13' W 096°08'0 0.0
2018-Apr-18 00:59N 19°13' W 096°08'0 0.0
2018-Apr-18 00:17N 19°13' W 096°08'0 0.0
2018-Apr-17 23:59N 19°13' W 096°08'0 0.0
2018-Apr-17 23:29N 19°13' W 096°08'0 0.0
2018-Apr-17 22:56N 19°13' W 096°08'0 0.0
2018-Apr-17 22:29N 19°13' W 096°08'0 0.0
2018-Apr-17 21:59N 19°13' W 096°08'0 0.0
2018-Apr-17 21:29N 19°13' W 096°08'0 0.0
2018-Apr-17 20:59N 19°13' W 096°08'0 0.0
2018-Apr-17 20:23N 19°13' W 096°08'0 0.0
2018-Apr-17 19:56N 19°13' W 096°08'0 0.0
2018-Apr-17 19:29N 19°13' W 096°08'0 0.0
2018-Apr-17 18:59N 19°13' W 096°08'0 0.0
2018-Apr-17 18:29N 19°13' W 096°08'0 0.0
2018-Apr-17 17:59N 19°13' W 096°08'0 0.0
2018-Apr-17 17:29N 19°13' W 096°08'0 0.0
2018-Apr-17 16:59N 19°13' W 096°08'0 0.0
2018-Apr-17 16:29N 19°13' W 096°08'0 0.0
2018-Apr-17 15:59N 19°13' W 096°08'0 0.0
2018-Apr-17 15:29N 19°13' W 096°08'0 0.0
2018-Apr-17 14:59N 19°13' W 096°08'0 0.0
2018-Apr-17 14:29N 19°13' W 096°08'0 0.4
2018-Apr-17 14:00N 19°12' W 096°08'4 8.1
2018-Apr-17 13:30N 19°11' W 096°04'4 8.6
2018-Apr-17 13:00N 19°14' W 096°00'612.1
2018-Apr-17 12:30N 19°20' W 095°57'612.3
2018-Apr-17 12:00N 19°22' W 095°51'1 1.1
2018-Apr-17 11:30N 19°22' W 095°51'0 0.3
2018-Apr-17 11:00N 19°22' W 095°51'0 0.2
2018-Apr-17 10:30N 19°22' W 095°51'0 0.2
2018-Apr-17 10:00N 19°22' W 095°51'0 0.2
2018-Apr-17 09:30N 19°21' W 095°51'0 0.1
2018-Apr-17 09:00N 19°21' W 095°51'0 0.1
2018-Apr-17 08:28N 19°21' W 095°51'0 0.2
2018-Apr-17 08:00N 19°21' W 095°51'0 0.3
2018-Apr-17 07:30N 19°21' W 095°51'0 0.4
2018-Apr-17 07:00N 19°21' W 095°50'0 0.5
2018-Apr-17 06:30N 19°21' W 095°50'0 0.5
2018-Apr-17 06:00N 19°21' W 095°50'0 0.6
2018-Apr-17 05:30N 19°21' W 095°49'0 0.7
2018-Apr-17 04:59N 19°21' W 095°49'0 0.7
2018-Apr-17 04:30N 19°21' W 095°49'0 0.9
2018-Apr-17 04:00N 19°21' W 095°48'1 1.0
2018-Apr-17 03:27N 19°22' W 095°48'1 1.3
2018-Apr-17 02:58N 19°22' W 095°48'610.3
2018-Apr-17 02:23N 19°20' W 095°54'3 6.6
2018-Apr-17 02:01N 19°20' W 095°57'0 0.8
2018-Apr-17 01:30N 19°20' W 095°57'0 0.9
2018-Apr-17 01:01N 19°20' W 095°56'0 1.0
2018-Apr-17 00:30N 19°20' W 095°56'1 1.1
2018-Apr-17 00:00N 19°21' W 095°55'1 1.2
2018-Apr-16 23:30N 19°21' W 095°54'1 1.3
2018-Apr-16 23:00N 19°21' W 095°54'1 1.3
2018-Apr-16 22:30N 19°22' W 095°53'1 1.3
2018-Apr-16 22:00N 19°22' W 095°53'1 1.7
2018-Apr-16 21:30N 19°23' W 095°53'4 8.5
2018-Apr-16 21:01N 19°19' W 095°54'3 5.7
2018-Apr-16 20:29N 19°16' W 095°54'1 1.1
2018-Apr-16 20:00N 19°17' W 095°54'1 1.0
2018-Apr-16 19:31N 19°17' W 095°54'1 1.1
2018-Apr-16 18:58N 19°18' W 095°54'1 1.1
2018-Apr-16 18:29N 19°18' W 095°55'1 1.2
2018-Apr-16 17:54N 19°19' W 095°55'1 1.3
2018-Apr-16 17:29N 19°19' W 095°55'1 1.4
2018-Apr-16 17:00N 19°20' W 095°55'1 2.0
2018-Apr-16 16:29N 19°21' W 095°56'2 3.1
2018-Apr-16 16:00N 19°20' W 095°57'510.0
2018-Apr-16 15:30N 19°15' W 095°57'5 8.8
2018-Apr-16 14:59N 19°15' W 095°52'816.3
2018-Apr-16 14:30N 19°15' W 095°44'  
2018-Apr-14 10:20N 25°30' W 079°40'516.6
2018-Apr-14 10:00N 25°36' W 079°41'816.3
2018-Apr-14 09:30N 25°44' W 079°41'917.3
2018-Apr-14 09:00N 25°50' W 079°48'917.6
2018-Apr-14 08:30N 25°56' W 079°54'917.5
2018-Apr-14 08:00N 26°02' W 080°01'510.7
2018-Apr-14 07:30N 26°06' W 080°06'1 1.8
2018-Apr-14 07:00N 26°05' W 080°07'1 1.5
2018-Apr-14 06:30N 26°04' W 080°07'0 0.0
2018-Apr-14 06:00N 26°04' W 080°07'0 0.0
2018-Apr-14 05:30N 26°04' W 080°07'0 0.0
2018-Apr-14 05:00N 26°04' W 080°07'0 0.0
2018-Apr-14 04:30N 26°04' W 080°07'0 0.0
2018-Apr-14 04:00N 26°04' W 080°07'0 0.0
2018-Apr-14 03:30N 26°04' W 080°07'0 0.0
2018-Apr-14 03:00N 26°04' W 080°07'0 0.0
2018-Apr-14 02:30N 26°04' W 080°07'0 0.0
2018-Apr-14 02:00N 26°04' W 080°07'0 0.0
2018-Apr-14 01:30N 26°04' W 080°07'0 0.0
2018-Apr-14 01:00N 26°04' W 080°07'0 0.0
2018-Apr-14 00:30N 26°04' W 080°07'0 0.0
2018-Apr-14 00:00N 26°04' W 080°07'0 0.0
2018-Apr-13 23:30N 26°04' W 080°07'0 0.0
2018-Apr-13 23:00N 26°04' W 080°07'0 0.0
2018-Apr-13 22:30N 26°04' W 080°07'0 0.0
2018-Apr-13 22:00N 26°04' W 080°07'0 0.0
2018-Apr-13 21:30N 26°04' W 080°07'0 0.0
2018-Apr-13 21:00N 26°04' W 080°07'0 0.0
2018-Apr-13 20:30N 26°04' W 080°07'0 0.0
2018-Apr-13 20:00N 26°04' W 080°07'0 0.0
2018-Apr-13 19:30N 26°04' W 080°07'0 0.0
2018-Apr-13 19:00N 26°04' W 080°07'0 0.0
2018-Apr-13 18:30N 26°04' W 080°07'0 0.0
2018-Apr-13 18:00N 26°04' W 080°07'0 0.0
2018-Apr-13 17:30N 26°04' W 080°07'0 0.0
2018-Apr-13 17:00N 26°04' W 080°07'0 0.0
2018-Apr-13 16:30N 26°04' W 080°07'0 0.0
2018-Apr-13 16:00N 26°04' W 080°07'0 0.0
2018-Apr-13 15:30N 26°04' W 080°07'0 0.0
2018-Apr-13 15:00N 26°04' W 080°07'0 0.9
2018-Apr-13 14:30N 26°05' W 080°07'1 2.5
2018-Apr-13 14:00N 26°06' W 080°06'4 7.6
2018-Apr-13 13:30N 26°05' W 080°02'1 1.3
2018-Apr-13 13:00N 26°04' W 080°01'1 1.1
2018-Apr-13 12:30N 26°05' W 080°01'3 5.7
2018-Apr-13 12:00N 26°06' W 079°58'510.9
2018-Apr-13 11:30N 26°08' W 079°53'510.5
2018-Apr-13 11:00N 26°10' W 079°47'510.1
2018-Apr-13 10:30N 26°12' W 079°42'5 9.6
2018-Apr-13 10:00N 26°14' W 079°37'5 9.9
2018-Apr-13 09:30N 26°16' W 079°32'510.3
2018-Apr-13 09:00N 26°17' W 079°26'510.6
2018-Apr-13 08:30N 26°19' W 079°21'  

Dump ship's entire track history